createdAt,value
2022-07-30T00:19:36.000Z,0.02
2022-07-30T00:49:42.000Z,0.23
2022-07-30T01:19:43.506Z,0.2
2022-07-30T01:49:48.000Z,0.23
2022-07-30T02:19:50.612Z,0.33
2022-07-30T02:50:01.544Z,0.11
2022-07-30T03:20:05.000Z,0.15
2022-07-30T03:50:12.587Z,0.22
2022-07-30T04:20:21.000Z,0.4
2022-07-30T04:50:31.000Z,0.04
2022-07-30T05:20:37.051Z,0.05
2022-07-30T05:50:40.000Z,0.14
2022-07-30T06:20:43.871Z,0.19
2022-07-30T06:50:51.859Z,0.22
2022-07-30T07:20:53.793Z,0.54
2022-07-30T07:50:54.911Z,0.37
2022-07-30T08:20:55.850Z,0.31
2022-07-30T08:50:58.338Z,1.03
2022-07-30T09:21:08.874Z,1.21
2022-07-30T09:51:20.000Z,1.03
2022-07-30T10:21:24.791Z,0.57
2022-07-30T10:51:33.000Z,0.71
2022-07-30T11:21:34.000Z,0.63
2022-07-30T11:51:37.000Z,0.21
2022-07-30T12:21:38.973Z,0.5
2022-07-30T12:51:42.082Z,0.8
2022-07-30T13:21:46.143Z,1.5
2022-07-30T13:51:50.091Z,0.94
2022-07-30T14:21:51.000Z,0.77
2022-07-30T14:51:53.000Z,1.83
2022-07-30T14:52:04.000Z,0.89
2022-07-30T15:22:34.000Z,0.68
2022-07-30T15:52:44.148Z,0.37
2022-07-30T16:22:46.000Z,0.58
2022-07-30T16:52:57.026Z,0.81
2022-07-30T17:23:08.027Z,0.86
2022-07-30T17:53:09.000Z,0.1
2022-07-30T18:23:11.049Z,0.6
2022-07-30T18:53:14.950Z,0.11
2022-07-30T19:23:17.931Z,0.12
2022-07-30T19:53:18.149Z,0.06
2022-07-30T20:23:19.153Z,0.05
2022-07-30T20:53:22.057Z,0.07
2022-07-30T21:23:25.251Z,0.1
2022-07-30T21:53:25.573Z,0.11
2022-07-30T22:23:31.314Z,0.26
2022-07-30T22:53:31.402Z,0.02
2022-07-30T23:23:33.455Z,0.33
2022-07-30T23:53:36.460Z,0.08
